sensor_id;sensor_type;location;lat;lon;timestamp;pressure;altitude;pressure_sealevel;temperature;humidity
64115;BME280;62188;35.640;139.748;2023-04-28T00:02:19;102217.50;;;24.56;30.20
64115;BME280;62188;35.640;139.748;2023-04-28T00:04:45;102209.66;;;24.73;31.41
64115;BME280;62188;35.640;139.748;2023-04-28T00:07:11;102214.10;;;24.99;30.59
64115;BME280;62188;35.640;139.748;2023-04-28T00:09:35;102206.96;;;24.72;29.85
64115;BME280;62188;35.640;139.748;2023-04-28T00:12:01;102202.25;;;24.81;29.87
64115;BME280;62188;35.640;139.748;2023-04-28T00:14:26;102198.93;;;25.07;30.19
64115;BME280;62188;35.640;139.748;2023-04-28T00:16:52;102194.84;;;24.99;29.13
64115;BME280;62188;35.640;139.748;2023-04-28T00:19:17;102190.94;;;24.96;28.91
64115;BME280;62188;35.640;139.748;2023-04-28T00:21:43;102186.69;;;24.95;29.13
64115;BME280;62188;35.640;139.748;2023-04-28T00:24:08;102189.39;;;25.07;28.65
64115;BME280;62188;35.640;139.748;2023-04-28T00:26:34;102191.24;;;25.19;28.66
64115;BME280;62188;35.640;139.748;2023-04-28T00:28:59;102186.98;;;25.11;28.40
64115;BME280;62188;35.640;139.748;2023-04-28T00:31:25;102183.06;;;25.26;29.25
64115;BME280;62188;35.640;139.748;2023-04-28T00:33:50;102195.02;;;25.20;28.98
64115;BME280;62188;35.640;139.748;2023-04-28T00:36:15;102191.32;;;25.04;27.25
64115;BME280;62188;35.640;139.748;2023-04-28T00:38:40;102183.27;;;24.85;27.13
64115;BME280;62188;35.640;139.748;2023-04-28T00:41:08;102176.89;;;24.97;27.08
64115;BME280;62188;35.640;139.748;2023-04-28T00:43:31;102171.56;;;24.45;27.41
64115;BME280;62188;35.640;139.748;2023-04-28T00:45:57;102165.00;;;24.56;27.48
64115;BME280;62188;35.640;139.748;2023-04-28T00:48:23;102164.95;;;24.84;27.43
64115;BME280;62188;35.640;139.748;2023-04-28T00:50:48;102160.56;;;25.05;27.13
64115;BME280;62188;35.640;139.748;2023-04-28T00:53:14;102151.72;;;24.97;27.47
64115;BME280;62188;35.640;139.748;2023-04-28T00:55:39;102159.96;;;25.43;27.06
64115;BME280;62188;35.640;139.748;2023-04-28T00:58:05;102161.26;;;24.94;27.20
64115;BME280;62188;35.640;139.748;2023-04-28T01:00:30;102166.44;;;24.91;27.01
64115;BME280;62188;35.640;139.748;2023-04-28T01:02:56;102158.09;;;24.33;27.02
64115;BME280;62188;35.640;139.748;2023-04-28T01:05:21;102145.76;;;24.97;26.97
64115;BME280;62188;35.640;139.748;2023-04-28T01:07:46;102146.31;;;25.02;26.85
64115;BME280;62188;35.640;139.748;2023-04-28T01:10:12;102149.83;;;24.86;26.07
64115;BME280;62188;35.640;139.748;2023-04-28T01:12:37;102154.90;;;24.80;25.96
64115;BME280;62188;35.640;139.748;2023-04-28T01:15:03;102148.56;;;25.08;26.27
64115;BME280;62188;35.640;139.748;2023-04-28T01:17:28;102150.26;;;24.59;26.13
64115;BME280;62188;35.640;139.748;2023-04-28T01:19:53;102150.40;;;24.87;26.41
64115;BME280;62188;35.640;139.748;2023-04-28T01:22:19;102155.02;;;24.92;26.18
64115;BME280;62188;35.640;139.748;2023-04-28T01:24:44;102144.92;;;25.04;26.56
64115;BME280;62188;35.640;139.748;2023-04-28T01:27:10;102148.67;;;25.30;26.20
64115;BME280;62188;35.640;139.748;2023-04-28T01:29:35;102148.35;;;25.17;25.95
64115;BME280;62188;35.640;139.748;2023-04-28T01:32:01;102151.51;;;25.68;26.26
64115;BME280;62188;35.640;139.748;2023-04-28T01:34:26;102148.08;;;25.66;26.51
64115;BME280;62188;35.640;139.748;2023-04-28T01:36:51;102150.65;;;25.67;26.25
64115;BME280;62188;35.640;139.748;2023-04-28T01:39:16;102149.06;;;25.67;26.13
64115;BME280;62188;35.640;139.748;2023-04-28T01:41:42;102147.02;;;25.82;26.36
64115;BME280;62188;35.640;139.748;2023-04-28T01:44:07;102153.66;;;26.23;25.80
64115;BME280;62188;35.640;139.748;2023-04-28T01:46:33;102140.87;;;26.02;25.39
64115;BME280;62188;35.640;139.748;2023-04-28T01:48:58;102144.86;;;26.21;25.67
64115;BME280;62188;35.640;139.748;2023-04-28T01:51:24;102138.40;;;26.36;25.28
64115;BME280;62188;35.640;139.748;2023-04-28T01:53:49;102139.34;;;26.30;24.66
64115;BME280;62188;35.640;139.748;2023-04-28T01:56:14;102143.48;;;25.96;25.06
64115;BME280;62188;35.640;139.748;2023-04-28T01:58:39;102143.04;;;25.71;25.59
64115;BME280;62188;35.640;139.748;2023-04-28T02:01:05;102143.64;;;25.50;25.64
64115;BME280;62188;35.640;139.748;2023-04-28T02:03:30;102137.31;;;25.46;25.70
64115;BME280;62188;35.640;139.748;2023-04-28T02:05:56;102137.26;;;25.19;26.10
64115;BME280;62188;35.640;139.748;2023-04-28T02:08:21;102139.17;;;25.34;26.02
64115;BME280;62188;35.640;139.748;2023-04-28T02:10:46;102136.78;;;25.37;25.90
64115;BME280;62188;35.640;139.748;2023-04-28T02:13:12;102131.30;;;24.88;26.37
64115;BME280;62188;35.640;139.748;2023-04-28T02:15:40;102130.59;;;25.07;26.14
64115;BME280;62188;35.640;139.748;2023-04-28T02:18:03;102137.35;;;24.89;26.13
64115;BME280;62188;35.640;139.748;2023-04-28T02:20:28;102134.29;;;24.78;25.94
64115;BME280;62188;35.640;139.748;2023-04-28T02:22:54;102133.86;;;25.07;25.76
64115;BME280;62188;35.640;139.748;2023-04-28T02:25:19;102127.90;;;25.33;25.73
64115;BME280;62188;35.640;139.748;2023-04-28T02:27:44;102121.81;;;25.11;25.33
64115;BME280;62188;35.640;139.748;2023-04-28T02:30:11;102118.08;;;24.82;25.29
64115;BME280;62188;35.640;139.748;2023-04-28T02:32:36;102126.78;;;24.83;25.69
64115;BME280;62188;35.640;139.748;2023-04-28T02:35:02;102116.60;;;24.54;25.99
64115;BME280;62188;35.640;139.748;2023-04-28T02:37:26;102120.45;;;24.44;25.98
64115;BME280;62188;35.640;139.748;2023-04-28T02:39:52;102114.90;;;24.50;25.92
64115;BME280;62188;35.640;139.748;2023-04-28T02:42:17;102113.89;;;24.20;26.13
64115;BME280;62188;35.640;139.748;2023-04-28T02:44:44;102104.46;;;24.49;26.05
64115;BME280;62188;35.640;139.748;2023-04-28T02:47:09;102099.86;;;24.63;26.01
64115;BME280;62188;35.640;139.748;2023-04-28T02:49:34;102098.42;;;25.01;25.81
64115;BME280;62188;35.640;139.748;2023-04-28T02:51:59;102100.31;;;25.14;25.84
64115;BME280;62188;35.640;139.748;2023-04-28T02:54:25;102095.33;;;25.24;25.81
64115;BME280;62188;35.640;139.748;2023-04-28T02:56:50;102095.69;;;25.17;25.89
64115;BME280;62188;35.640;139.748;2023-04-28T02:59:15;102093.29;;;25.03;25.82
64115;BME280;62188;35.640;139.748;2023-04-28T03:01:41;102094.46;;;25.17;25.65
64115;BME280;62188;35.640;139.748;2023-04-28T03:04:06;102085.03;;;25.37;25.77
64115;BME280;62188;35.640;139.748;2023-04-28T03:06:32;102083.17;;;25.80;25.97
64115;BME280;62188;35.640;139.748;2023-04-28T03:08:57;102085.49;;;25.81;25.67
64115;BME280;62188;35.640;139.748;2023-04-28T03:11:23;102078.11;;;25.42;25.28
64115;BME280;62188;35.640;139.748;2023-04-28T03:13:48;102076.58;;;25.39;25.30
64115;BME280;62188;35.640;139.748;2023-04-28T03:16:13;102076.22;;;26.00;25.22
64115;BME280;62188;35.640;139.748;2023-04-28T03:18:39;102072.65;;;25.22;25.20
64115;BME280;62188;35.640;139.748;2023-04-28T03:21:04;102065.63;;;25.52;25.19
64115;BME280;62188;35.640;139.748;2023-04-28T03:23:30;102063.37;;;25.41;25.21
64115;BME280;62188;35.640;139.748;2023-04-28T03:25:55;102065.74;;;25.54;25.29
64115;BME280;62188;35.640;139.748;2023-04-28T03:28:21;102051.95;;;25.67;25.37
64115;BME280;62188;35.640;139.748;2023-04-28T03:30:46;102046.16;;;26.06;25.54
64115;BME280;62188;35.640;139.748;2023-04-28T03:33:12;102045.63;;;26.05;25.84
64115;BME280;62188;35.640;139.748;2023-04-28T03:35:36;102040.46;;;25.56;25.91
64115;BME280;62188;35.640;139.748;2023-04-28T03:38:02;102047.47;;;25.30;26.03
64115;BME280;62188;35.640;139.748;2023-04-28T03:40:28;102044.12;;;25.57;26.16
64115;BME280;62188;35.640;139.748;2023-04-28T03:42:53;102044.43;;;24.98;26.51
64115;BME280;62188;35.640;139.748;2023-04-28T03:45:18;102033.99;;;25.54;26.42
64115;BME280;62188;35.640;139.748;2023-04-28T03:47:44;102038.85;;;25.65;26.35
64115;BME280;62188;35.640;139.748;2023-04-28T03:50:10;102034.87;;;25.62;26.45
64115;BME280;62188;35.640;139.748;2023-04-28T03:52:35;102030.20;;;25.67;26.64
64115;BME280;62188;35.640;139.748;2023-04-28T03:55:01;102026.63;;;25.61;26.70
64115;BME280;62188;35.640;139.748;2023-04-28T03:57:26;102016.28;;;25.75;26.64
64115;BME280;62188;35.640;139.748;2023-04-28T03:59:51;102016.81;;;25.88;26.74
64115;BME280;62188;35.640;139.748;2023-04-28T04:02:17;102019.17;;;25.56;26.57
64115;BME280;62188;35.640;139.748;2023-04-28T04:04:42;102014.27;;;25.55;26.95
64115;BME280;62188;35.640;139.748;2023-04-28T04:07:08;102008.11;;;25.28;27.04
64115;BME280;62188;35.640;139.748;2023-04-28T04:09:33;102009.09;;;25.80;26.94
64115;BME280;62188;35.640;139.748;2023-04-28T04:11:58;102002.37;;;25.68;27.11
64115;BME280;62188;35.640;139.748;2023-04-28T04:14:24;102004.65;;;25.05;27.48
64115;BME280;62188;35.640;139.748;2023-04-28T04:16:49;102003.83;;;24.67;28.09
64115;BME280;62188;35.640;139.748;2023-04-28T04:19:15;101993.76;;;24.67;28.10
64115;BME280;62188;35.640;139.748;2023-04-28T04:21:40;101989.22;;;25.33;28.18
64115;BME280;62188;35.640;139.748;2023-04-28T04:24:06;101997.06;;;25.55;28.17
64115;BME280;62188;35.640;139.748;2023-04-28T04:26:31;101992.90;;;25.16;28.26
64115;BME280;62188;35.640;139.748;2023-04-28T04:28:57;101987.50;;;25.31;28.47
64115;BME280;62188;35.640;139.748;2023-04-28T04:31:22;101979.17;;;25.27;28.63
64115;BME280;62188;35.640;139.748;2023-04-28T04:33:48;101981.73;;;24.67;29.08
64115;BME280;62188;35.640;139.748;2023-04-28T04:36:13;101986.61;;;24.22;29.55
64115;BME280;62188;35.640;139.748;2023-04-28T04:38:38;101985.67;;;23.96;29.76
64115;BME280;62188;35.640;139.748;2023-04-28T04:41:03;101972.88;;;24.18;29.85
64115;BME280;62188;35.640;139.748;2023-04-28T04:43:29;101979.64;;;24.13;29.80
64115;BME280;62188;35.640;139.748;2023-04-28T04:45:54;101972.86;;;24.16;29.81
64115;BME280;62188;35.640;139.748;2023-04-28T04:48:20;101965.06;;;24.33;29.66
64115;BME280;62188;35.640;139.748;2023-04-28T04:50:45;101967.90;;;24.15;29.57
64115;BME280;62188;35.640;139.748;2023-04-28T04:53:11;101980.26;;;24.05;29.71
64115;BME280;62188;35.640;139.748;2023-04-28T04:55:45;101970.86;;;23.68;30.02
64115;BME280;62188;35.640;139.748;2023-04-28T04:58:01;101950.70;;;23.55;30.09
64115;BME280;62188;35.640;139.748;2023-04-28T05:00:27;101954.41;;;23.35;30.15
64115;BME280;62188;35.640;139.748;2023-04-28T05:02:52;101960.78;;;23.50;30.08
64115;BME280;62188;35.640;139.748;2023-04-28T05:05:17;101953.27;;;23.48;29.95
64115;BME280;62188;35.640;139.748;2023-04-28T05:07:43;101946.41;;;23.52;29.91
64115;BME280;62188;35.640;139.748;2023-04-28T05:10:09;101938.86;;;23.70;29.80
64115;BME280;62188;35.640;139.748;2023-04-28T05:12:34;101932.31;;;23.67;29.65
64115;BME280;62188;35.640;139.748;2023-04-28T05:14:59;101932.76;;;23.46;29.69
64115;BME280;62188;35.640;139.748;2023-04-28T05:17:25;101928.67;;;23.13;29.91
64115;BME280;62188;35.640;139.748;2023-04-28T05:19:50;101919.73;;;22.85;30.00
64115;BME280;62188;35.640;139.748;2023-04-28T05:22:15;101914.27;;;22.92;30.03
64115;BME280;62188;35.640;139.748;2023-04-28T05:24:41;101911.09;;;23.11;30.06
64115;BME280;62188;35.640;139.748;2023-04-28T05:27:06;101912.83;;;23.16;29.88
64115;BME280;62188;35.640;139.748;2023-04-28T05:29:31;101917.62;;;23.31;29.58
64115;BME280;62188;35.640;139.748;2023-04-28T05:31:57;101914.82;;;23.53;29.62
64115;BME280;62188;35.640;139.748;2023-04-28T05:34:23;101910.27;;;23.18;29.81
64115;BME280;62188;35.640;139.748;2023-04-28T05:36:48;101903.59;;;23.28;29.97
64115;BME280;62188;35.640;139.748;2023-04-28T05:39:14;101899.58;;;23.31;30.14
64115;BME280;62188;35.640;139.748;2023-04-28T05:41:39;101897.08;;;23.44;30.23
64115;BME280;62188;35.640;139.748;2023-04-28T05:44:05;101895.68;;;23.31;30.44
64115;BME280;62188;35.640;139.748;2023-04-28T05:46:30;101910.64;;;23.11;30.48
64115;BME280;62188;35.640;139.748;2023-04-28T05:48:56;101892.29;;;23.25;30.49
64115;BME280;62188;35.640;139.748;2023-04-28T05:51:22;101887.53;;;23.30;30.30
64115;BME280;62188;35.640;139.748;2023-04-28T05:53:47;101879.80;;;23.47;30.29
64115;BME280;62188;35.640;139.748;2023-04-28T05:56:12;101881.48;;;23.46;30.12
64115;BME280;62188;35.640;139.748;2023-04-28T05:58:37;101877.70;;;23.58;30.19
64115;BME280;62188;35.640;139.748;2023-04-28T06:01:03;101878.83;;;23.70;30.22
64115;BME280;62188;35.640;139.748;2023-04-28T06:03:28;101877.70;;;23.80;30.33
64115;BME280;62188;35.640;139.748;2023-04-28T06:05:54;101870.68;;;23.47;30.64
64115;BME280;62188;35.640;139.748;2023-04-28T06:08:19;101864.42;;;23.52;30.73
64115;BME280;62188;35.640;139.748;2023-04-28T06:10:45;101862.73;;;23.27;30.86
64115;BME280;62188;35.640;139.748;2023-04-28T06:13:10;101859.12;;;23.52;30.87
64115;BME280;62188;35.640;139.748;2023-04-28T06:15:36;101863.35;;;23.68;30.92
64115;BME280;62188;35.640;139.748;2023-04-28T06:18:01;101858.76;;;23.62;30.90
64115;BME280;62188;35.640;139.748;2023-04-28T06:20:26;101856.34;;;23.69;30.53
64115;BME280;62188;35.640;139.748;2023-04-28T06:22:52;101856.54;;;23.30;30.60
64115;BME280;62188;35.640;139.748;2023-04-28T06:25:17;101856.66;;;23.35;30.71
64115;BME280;62188;35.640;139.748;2023-04-28T06:27:43;101858.91;;;23.25;30.93
64115;BME280;62188;35.640;139.748;2023-04-28T06:30:12;101858.20;;;23.43;30.98
64115;BME280;62188;35.640;139.748;2023-04-28T06:32:34;101857.03;;;23.59;31.01
64115;BME280;62188;35.640;139.748;2023-04-28T06:34:59;101853.67;;;23.64;30.97
64115;BME280;62188;35.640;139.748;2023-04-28T06:37:25;101857.37;;;23.65;31.07
64115;BME280;62188;35.640;139.748;2023-04-28T06:39:50;101858.55;;;23.42;30.97
64115;BME280;62188;35.640;139.748;2023-04-28T06:42:16;101862.38;;;23.22;31.12
64115;BME280;62188;35.640;139.748;2023-04-28T06:44:41;101864.28;;;23.06;31.37
64115;BME280;62188;35.640;139.748;2023-04-28T06:47:07;101860.83;;;23.02;31.66
64115;BME280;62188;35.640;139.748;2023-04-28T06:49:32;101862.94;;;22.93;31.90
64115;BME280;62188;35.640;139.748;2023-04-28T06:51:57;101862.86;;;23.22;31.87
64115;BME280;62188;35.640;139.748;2023-04-28T06:54:23;101878.41;;;22.94;31.97
64115;BME280;62188;35.640;139.748;2023-04-28T06:56:48;101863.64;;;22.90;31.91
64115;BME280;62188;35.640;139.748;2023-04-28T06:59:14;101873.48;;;22.62;31.84
64115;BME280;62188;35.640;139.748;2023-04-28T07:01:39;101866.45;;;22.07;32.60
64115;BME280;62188;35.640;139.748;2023-04-28T07:04:05;101871.57;;;22.76;32.45
64115;BME280;62188;35.640;139.748;2023-04-28T07:06:31;101863.16;;;22.17;32.46
64115;BME280;62188;35.640;139.748;2023-04-28T07:08:56;101877.42;;;22.15;32.52
64115;BME280;62188;35.640;139.748;2023-04-28T07:11:21;101862.17;;;22.25;32.70
64115;BME280;62188;35.640;139.748;2023-04-28T07:13:47;101864.43;;;22.05;32.79
64115;BME280;62188;35.640;139.748;2023-04-28T07:16:12;101866.30;;;21.84;33.18
64115;BME280;62188;35.640;139.748;2023-04-28T07:18:38;101862.54;;;22.45;32.84
64115;BME280;62188;35.640;139.748;2023-04-28T07:21:03;101862.90;;;22.30;32.69
64115;BME280;62188;35.640;139.748;2023-04-28T07:23:29;101874.74;;;22.70;32.50
64115;BME280;62188;35.640;139.748;2023-04-28T07:25:54;101872.78;;;22.11;32.93
64115;BME280;62188;35.640;139.748;2023-04-28T07:28:20;101862.52;;;22.42;32.76
64115;BME280;62188;35.640;139.748;2023-04-28T07:30:45;101862.88;;;22.67;32.59
64115;BME280;62188;35.640;139.748;2023-04-28T07:33:10;101870.15;;;22.55;32.68
64115;BME280;62188;35.640;139.748;2023-04-28T07:35:36;101861.49;;;22.42;32.82
64115;BME280;62188;35.640;139.748;2023-04-28T07:38:02;101862.24;;;22.51;32.64
64115;BME280;62188;35.640;139.748;2023-04-28T07:40:27;101856.32;;;22.42;32.54
64115;BME280;62188;35.640;139.748;2023-04-28T07:42:53;101858.14;;;22.35;32.52
64115;BME280;62188;35.640;139.748;2023-04-28T07:45:18;101852.56;;;22.49;32.38
64115;BME280;62188;35.640;139.748;2023-04-28T07:47:43;101852.03;;;22.62;32.34
64115;BME280;62188;35.640;139.748;2023-04-28T07:50:09;101851.33;;;22.25;32.42
64115;BME280;62188;35.640;139.748;2023-04-28T07:52:35;101849.01;;;22.62;32.48
64115;BME280;62188;35.640;139.748;2023-04-28T07:55:00;101852.85;;;22.81;32.10
64115;BME280;62188;35.640;139.748;2023-04-28T07:57:25;101857.73;;;22.67;32.53
64115;BME280;62188;35.640;139.748;2023-04-28T07:59:51;101857.70;;;22.11;32.64
64115;BME280;62188;35.640;139.748;2023-04-28T08:02:16;101855.73;;;22.22;32.78
64115;BME280;62188;35.640;139.748;2023-04-28T08:04:42;101858.05;;;22.24;32.77
64115;BME280;62188;35.640;139.748;2023-04-28T08:07:08;101857.86;;;22.44;32.61
64115;BME280;62188;35.640;139.748;2023-04-28T08:09:33;101855.61;;;22.36;32.73
64115;BME280;62188;35.640;139.748;2023-04-28T08:11:58;101856.75;;;22.48;32.67
64115;BME280;62188;35.640;139.748;2023-04-28T08:14:24;101853.49;;;22.31;32.92
64115;BME280;62188;35.640;139.748;2023-04-28T08:16:49;101852.25;;;22.38;33.01
64115;BME280;62188;35.640;139.748;2023-04-28T08:19:15;101859.10;;;22.30;32.99
64115;BME280;62188;35.640;139.748;2023-04-28T08:21:40;101850.95;;;22.16;33.34
64115;BME280;62188;35.640;139.748;2023-04-28T08:24:06;101845.58;;;22.25;33.39
64115;BME280;62188;35.640;139.748;2023-04-28T08:26:31;101845.54;;;22.37;33.29
64115;BME280;62188;35.640;139.748;2023-04-28T08:28:57;101842.73;;;22.01;33.37
64115;BME280;62188;35.640;139.748;2023-04-28T08:31:22;101840.28;;;22.62;33.27
64115;BME280;62188;35.640;139.748;2023-04-28T08:33:47;101842.61;;;22.53;33.06
64115;BME280;62188;35.640;139.748;2023-04-28T08:36:13;101839.12;;;22.70;33.17
64115;BME280;62188;35.640;139.748;2023-04-28T08:38:38;101831.29;;;22.36;33.08
64115;BME280;62188;35.640;139.748;2023-04-28T08:41:05;101837.10;;;22.95;33.05
64115;BME280;62188;35.640;139.748;2023-04-28T08:43:31;101831.36;;;22.76;33.13
64115;BME280;62188;35.640;139.748;2023-04-28T08:45:55;101828.65;;;22.49;33.27
64115;BME280;62188;35.640;139.748;2023-04-28T08:48:22;101833.27;;;22.53;33.38
64115;BME280;62188;35.640;139.748;2023-04-28T08:50:50;101824.63;;;22.10;33.41
64115;BME280;62188;35.640;139.748;2023-04-28T08:53:14;101822.84;;;22.80;33.43
64115;BME280;62188;35.640;139.748;2023-04-28T08:55:38;101827.49;;;22.60;33.45
64115;BME280;62188;35.640;139.748;2023-04-28T08:58:03;101834.76;;;22.11;34.19
64115;BME280;62188;35.640;139.748;2023-04-28T09:00:28;101829.09;;;21.99;34.49
64115;BME280;62188;35.640;139.748;2023-04-28T09:02:54;101828.50;;;22.16;34.80
64115;BME280;62188;35.640;139.748;2023-04-28T09:05:20;101834.95;;;21.81;35.08
64115;BME280;62188;35.640;139.748;2023-04-28T09:07:46;101836.58;;;22.09;34.81
64115;BME280;62188;35.640;139.748;2023-04-28T09:10:19;101842.17;;;22.29;34.72
64115;BME280;62188;35.640;139.748;2023-04-28T09:12:37;101841.70;;;22.53;34.74
64115;BME280;62188;35.640;139.748;2023-04-28T09:15:01;101839.25;;;22.05;34.95
64115;BME280;62188;35.640;139.748;2023-04-28T09:17:27;101840.89;;;21.74;35.58
64115;BME280;62188;35.640;139.748;2023-04-28T09:19:52;101839.72;;;21.66;35.42
64115;BME280;62188;35.640;139.748;2023-04-28T09:22:18;101844.64;;;21.67;35.54
64115;BME280;62188;35.640;139.748;2023-04-28T09:24:43;101840.46;;;21.65;35.62
64115;BME280;62188;35.640;139.748;2023-04-28T09:27:09;101842.00;;;22.02;35.44
64115;BME280;62188;35.640;139.748;2023-04-28T09:29:34;101839.04;;;21.75;35.51
64115;BME280;62188;35.640;139.748;2023-04-28T09:34:25;101837.81;;;21.54;35.54
64115;BME280;62188;35.640;139.748;2023-04-28T09:36:50;101850.33;;;21.82;35.58
64115;BME280;62188;35.640;139.748;2023-04-28T09:41:42;101845.47;;;21.47;35.98
64115;BME280;62188;35.640;139.748;2023-04-28T09:44:14;101851.49;;;21.77;36.02
64115;BME280;62188;35.640;139.748;2023-04-28T09:46:32;101853.11;;;21.83;36.00
64115;BME280;62188;35.640;139.748;2023-04-28T09:49:01;101855.08;;;21.37;36.38
64115;BME280;62188;35.640;139.748;2023-04-28T09:51:22;101865.63;;;21.18;36.63
64115;BME280;62188;35.640;139.748;2023-04-28T09:53:48;101867.59;;;21.89;36.41
64115;BME280;62188;35.640;139.748;2023-04-28T09:56:14;101863.34;;;21.98;36.37
64115;BME280;62188;35.640;139.748;2023-04-28T09:58:40;101865.98;;;21.68;36.46
64115;BME280;62188;35.640;139.748;2023-04-28T10:01:05;101865.93;;;21.91;36.58
64115;BME280;62188;35.640;139.748;2023-04-28T10:03:31;101864.17;;;21.68;36.52
64115;BME280;62188;35.640;139.748;2023-04-28T10:05:57;101860.01;;;21.49;36.50
64115;BME280;62188;35.640;139.748;2023-04-28T10:08:22;101859.11;;;21.49;36.53
64115;BME280;62188;35.640;139.748;2023-04-28T10:10:48;101865.01;;;21.76;36.48
64115;BME280;62188;35.640;139.748;2023-04-28T10:13:12;101863.38;;;21.90;36.36
64115;BME280;62188;35.640;139.748;2023-04-28T10:15:39;101858.82;;;21.65;36.25
64115;BME280;62188;35.640;139.748;2023-04-28T10:18:04;101854.73;;;21.69;36.35
64115;BME280;62188;35.640;139.748;2023-04-28T10:20:30;101859.22;;;21.77;36.15
64115;BME280;62188;35.640;139.748;2023-04-28T10:23:03;101861.37;;;21.81;36.12
64115;BME280;62188;35.640;139.748;2023-04-28T10:25:26;101863.50;;;22.16;35.98
64115;BME280;62188;35.640;139.748;2023-04-28T10:27:46;101855.76;;;21.80;35.81
64115;BME280;62188;35.640;139.748;2023-04-28T10:30:12;101862.77;;;21.93;36.02
64115;BME280;62188;35.640;139.748;2023-04-28T10:32:36;101859.38;;;21.65;36.01
64115;BME280;62188;35.640;139.748;2023-04-28T10:44:43;101880.46;;;21.78;36.11
64115;BME280;62188;35.640;139.748;2023-04-28T10:47:09;101889.02;;;21.30;36.48
64115;BME280;62188;35.640;139.748;2023-04-28T10:51:59;101877.65;;;21.18;36.80
64115;BME280;62188;35.640;139.748;2023-04-28T10:54:25;101879.87;;;21.57;36.70
64115;BME280;62188;35.640;139.748;2023-04-28T10:59:24;101883.99;;;21.22;36.88
64115;BME280;62188;35.640;139.748;2023-04-28T11:01:41;101890.29;;;21.11;37.39
64115;BME280;62188;35.640;139.748;2023-04-28T11:04:07;101897.53;;;21.22;37.28
64115;BME280;62188;35.640;139.748;2023-04-28T11:06:33;101895.29;;;21.15;37.34
64115;BME280;62188;35.640;139.748;2023-04-28T11:08:59;101899.37;;;21.14;37.44
64115;BME280;62188;35.640;139.748;2023-04-28T11:11:24;101900.32;;;21.18;37.79
64115;BME280;62188;35.640;139.748;2023-04-28T11:13:49;101904.87;;;21.45;37.57
64115;BME280;62188;35.640;139.748;2023-04-28T11:16:16;101910.59;;;21.19;37.59
64115;BME280;62188;35.640;139.748;2023-04-28T11:18:49;101906.76;;;21.14;38.32
64115;BME280;62188;35.640;139.748;2023-04-28T11:21:05;101909.33;;;21.39;37.91
64115;BME280;62188;35.640;139.748;2023-04-28T11:23:31;101909.55;;;21.36;38.06
64115;BME280;62188;35.640;139.748;2023-04-28T11:25:56;101916.22;;;21.43;37.86
64115;BME280;62188;35.640;139.748;2023-04-28T11:28:22;101917.12;;;21.41;37.93
64115;BME280;62188;35.640;139.748;2023-04-28T11:30:47;101920.41;;;21.49;37.98
64115;BME280;62188;35.640;139.748;2023-04-28T11:33:12;101917.58;;;21.62;37.41
64115;BME280;62188;35.640;139.748;2023-04-28T11:35:41;101916.59;;;20.87;37.12
64115;BME280;62188;35.640;139.748;2023-04-28T11:38:03;101915.36;;;21.31;37.10
64115;BME280;62188;35.640;139.748;2023-04-28T11:40:28;101925.28;;;21.45;36.94
64115;BME280;62188;35.640;139.748;2023-04-28T11:42:54;101920.37;;;21.36;37.02
64115;BME280;62188;35.640;139.748;2023-04-28T11:45:19;101929.59;;;21.21;36.76
64115;BME280;62188;35.640;139.748;2023-04-28T11:47:45;101923.79;;;21.02;36.35
64115;BME280;62188;35.640;139.748;2023-04-28T11:50:11;101929.31;;;21.28;36.84
64115;BME280;62188;35.640;139.748;2023-04-28T11:52:36;101939.66;;;21.20;36.36
64115;BME280;62188;35.640;139.748;2023-04-28T11:55:01;101935.11;;;21.20;36.44
64115;BME280;62188;35.640;139.748;2023-04-28T11:57:27;101933.49;;;21.28;36.03
64115;BME280;62188;35.640;139.748;2023-04-28T11:59:52;101929.94;;;21.52;36.18
64115;BME280;62188;35.640;139.748;2023-04-28T12:02:24;101928.55;;;21.53;36.54
64115;BME280;62188;35.640;139.748;2023-04-28T12:04:44;101930.37;;;21.46;36.18
64115;BME280;62188;35.640;139.748;2023-04-28T12:07:10;101928.35;;;21.51;35.91
64115;BME280;62188;35.640;139.748;2023-04-28T12:09:35;101941.48;;;21.56;35.66
64115;BME280;62188;35.640;139.748;2023-04-28T12:12:01;101931.62;;;21.23;35.27
64115;BME280;62188;35.640;139.748;2023-04-28T12:14:26;101933.18;;;21.55;35.26
64115;BME280;62188;35.640;139.748;2023-04-28T12:16:52;101927.08;;;21.50;35.38
64115;BME280;62188;35.640;139.748;2023-04-28T12:19:18;101929.70;;;21.52;35.41
64115;BME280;62188;35.640;139.748;2023-04-28T12:21:42;101932.59;;;21.52;35.54
64115;BME280;62188;35.640;139.748;2023-04-28T12:24:14;101928.08;;;21.64;36.42
64115;BME280;62188;35.640;139.748;2023-04-28T12:26:33;101931.96;;;21.20;35.84
64115;BME280;62188;35.640;139.748;2023-04-28T12:28:58;101930.39;;;21.67;35.76
64115;BME280;62188;35.640;139.748;2023-04-28T12:31:24;101930.32;;;21.73;35.37
64115;BME280;62188;35.640;139.748;2023-04-28T12:33:49;101924.64;;;21.69;35.17
64115;BME280;62188;35.640;139.748;2023-04-28T12:36:14;101924.58;;;21.65;35.26
64115;BME280;62188;35.640;139.748;2023-04-28T12:38:47;101924.81;;;21.72;35.28
64115;BME280;62188;35.640;139.748;2023-04-28T12:41:06;101923.37;;;21.59;34.83